Seneimaru — JG5357 — position and weather

sailwx.info

Track history (hours):
 
Tides and Currents Weather Stations Pressure Air Temp Water Temp Dewpoint Dewpoint Depression Visibility Wind Speed Wind Dir Waves Ship Positions

Seneimaru

Last reported at 2015-May-01 06:33 UTC. Time now 2015-May-03 14:53 UTC.
Position N 34°58' E 139°43'.

Length 72 m; draft 5.9 m.

Type: Cargo ship. MMSI: 431100477.

Date/timePositionNaut miles runAvg speedWind from/ knotsBaromVisibWave heightAir tempDewpointWater temp
2015-May-01 06:33N 34°58' E 139°43'1111.1
2015-May-01 05:34N 35°08' E 139°45'1110.7
2015-May-01 04:34N 35°19' E 139°43'1010.4
2015-May-01 03:34N 35°29' E 139°47'4 4.0
2015-May-01 02:33N 35°30' E 139°43'0 0.0
2015-May-01 01:34N 35°30' E 139°43'0 0.0
2015-May-01 00:34N 35°30' E 139°43'0 0.0
2015-Apr-30 23:34N 35°30' E 139°43'2 1.5
2015-Apr-30 22:33N 35°29' E 139°42'6 5.7
2015-Apr-30 21:34N 35°24' E 139°46'1010.0
2015-Apr-30 20:34N 35°14' E 139°47'1211.5
2015-Apr-30 19:34N 35°03' E 139°45'5 0.1
2015-Apr-29 08:33N 34°59' E 139°43'1111.0
2015-Apr-29 07:34N 35°09' E 139°45'1010.4
2015-Apr-29 06:34N 35°20' E 139°43'1110.5
2015-Apr-29 05:33N 35°29' E 139°48'4 3.9
2015-Apr-29 04:34N 35°30' E 139°43'0 0.0
2015-Apr-29 03:33N 35°30' E 139°43'0 0.0
2015-Apr-29 02:33N 35°30' E 139°43'0 0.0
2015-Apr-29 01:33N 35°30' E 139°43'0 0.0
2015-Apr-29 00:34N 35°30' E 139°43'0 0.0
2015-Apr-28 23:34N 35°30' E 139°43'0 0.0
2015-Apr-28 22:34N 35°30' E 139°43'0 0.0
2015-Apr-28 21:33N 35°30' E 139°43'1 1.3
2015-Apr-28 20:34N 35°29' E 139°42'6 6.3
2015-Apr-28 19:34N 35°23' E 139°44'0 0.3
2015-Apr-28 18:33N 35°23' E 139°44'1111.1
2015-Apr-28 17:33N 35°12' E 139°47'1312.4
2015-Apr-28 16:33N 34°59' E 139°44'4 0.1
2015-Apr-27 09:29N 34°56' E 139°44'9 9.8
2015-Apr-27 08:33N 35°05' E 139°44'1110.5
2015-Apr-27 07:33N 35°15' E 139°46'1010.1
2015-Apr-27 06:33N 35°25' E 139°44'5 4.7
2015-Apr-27 05:34N 35°30' E 139°43'1 0.7
2015-Apr-27 04:33N 35°30' E 139°43'0 0.0
2015-Apr-27 03:33N 35°30' E 139°43'0 0.0
2015-Apr-27 02:33N 35°30' E 139°43'0 0.0
2015-Apr-27 01:33N 35°30' E 139°43'0 0.0
2015-Apr-27 00:33N 35°30' E 139°43'0 0.0
2015-Apr-26 23:33N 35°30' E 139°43'0 0.2
2015-Apr-26 22:34N 35°30' E 139°43'6 5.5
2015-Apr-26 21:33N 35°25' E 139°44'1 0.9
2015-Apr-26 20:32N 35°24' E 139°44'0 0.0
2015-Apr-26 19:32N 35°24' E 139°44'0 0.0
2015-Apr-26 18:32N 35°24' E 139°44'0 0.0
2015-Apr-26 17:32N 35°24' E 139°44'0 0.0
2015-Apr-26 16:26N 35°24' E 139°44'0 0.0
2015-Apr-26 15:32N 35°24' E 139°44'4 4.3
2015-Apr-26 14:33N 35°19' E 139°43'1111.5
2015-Apr-26 13:33N 35°08' E 139°46'1312.3
2015-Apr-26 12:28N 34°55' E 139°45'2 0.1
2015-Apr-25 04:33N 34°57' E 139°44'1110.9
2015-Apr-25 03:33N 35°08' E 139°45'1111.3
2015-Apr-25 02:33N 35°19' E 139°43'1010.3
2015-Apr-25 01:33N 35°29' E 139°47'4 3.8
2015-Apr-25 00:33N 35°30' E 139°43'0 0.0
2015-Apr-24 23:33N 35°30' E 139°43'0 0.0
2015-Apr-24 22:33N 35°30' E 139°43'0 0.0
2015-Apr-24 21:33N 35°30' E 139°43'1 1.2
2015-Apr-24 20:33N 35°29' E 139°42'6 6.1
2015-Apr-24 19:33N 35°23' E 139°44'0 0.0
2015-Apr-24 18:33N 35°23' E 139°44'0 0.0
2015-Apr-24 17:33N 35°23' E 139°44'9 8.7
2015-Apr-24 16:33N 35°15' E 139°47'1212.2
2015-Apr-24 15:33N 35°03' E 139°45'9 0.3
2015-Apr-23 06:20N 34°54' E 139°45'810.3
2015-Apr-23 05:33N 35°02' E 139°44'1111.3
2015-Apr-23 04:33N 35°13' E 139°46'1010.5
2015-Apr-23 03:33N 35°23' E 139°44'1 0.9
2015-Apr-23 02:32N 35°24' E 139°44'4 4.0
2015-Apr-23 01:33N 35°27' E 139°47'4 4.2
2015-Apr-23 00:34N 35°30' E 139°43'0 0.0
2015-Apr-22 23:33N 35°30' E 139°43'0 0.0
2015-Apr-22 22:33N 35°30' E 139°43'0 0.0
2015-Apr-22 21:33N 35°30' E 139°43'0 0.0
2015-Apr-22 20:33N 35°30' E 139°43'0 0.0
2015-Apr-22 19:33N 35°30' E 139°43'0 0.0
2015-Apr-22 18:33N 35°30' E 139°43'0 0.0
2015-Apr-22 17:33N 35°30' E 139°43'0 0.0
2015-Apr-22 16:33N 35°30' E 139°43'0 0.0
2015-Apr-22 15:33N 35°30' E 139°43'0 0.0
2015-Apr-22 14:33N 35°30' E 139°43'0 0.0
2015-Apr-22 13:33N 35°30' E 139°43'0 0.0
2015-Apr-22 12:33N 35°30' E 139°43'0 0.0
2015-Apr-22 11:33N 35°30' E 139°43'0 0.0
2015-Apr-22 10:34N 35°30' E 139°43'0 0.0
2015-Apr-22 09:33N 35°30' E 139°43'0 0.0
2015-Apr-22 08:33N 35°30' E 139°43'0 0.0
2015-Apr-22 07:33N 35°30' E 139°43'0 0.0
2015-Apr-22 06:33N 35°30' E 139°43'0 0.0
2015-Apr-22 05:33N 35°30' E 139°43'0 0.0
2015-Apr-22 04:33N 35°30' E 139°43'0 0.0
2015-Apr-22 03:33N 35°30' E 139°43'0 0.0
2015-Apr-22 02:33N 35°30' E 139°43'0 0.0
2015-Apr-22 01:33N 35°30' E 139°43'0 0.0
2015-Apr-22 00:33N 35°30' E 139°43'0 0.0
2015-Apr-21 23:33N 35°30' E 139°43'0 0.0
2015-Apr-21 22:33N 35°30' E 139°43'0 0.0
2015-Apr-21 21:33N 35°30' E 139°43'0 0.0
2015-Apr-21 20:33N 35°30' E 139°43'0 0.0
2015-Apr-21 19:34N 35°30' E 139°43'0 0.0
2015-Apr-21 18:33N 35°30' E 139°43'0 0.0
2015-Apr-21 17:34N 35°30' E 139°43'0 0.0
2015-Apr-21 16:33N 35°30' E 139°43'0 0.0
2015-Apr-21 15:34N 35°30' E 139°43'0 0.0
2015-Apr-21 14:33N 35°30' E 139°43'0 0.0
2015-Apr-21 13:34N 35°30' E 139°43'0 0.0
2015-Apr-21 12:33N 35°30' E 139°43'0 0.0
2015-Apr-21 11:34N 35°30' E 139°43'0 0.0
2015-Apr-21 10:34N 35°30' E 139°43'0 0.0
2015-Apr-21 09:33N 35°30' E 139°43'0 0.0
2015-Apr-21 08:33N 35°30' E 139°43'0 0.0
2015-Apr-21 07:33N 35°30' E 139°43'1 1.2
2015-Apr-21 06:33N 35°29' E 139°42'  
Track history (hours):
 
Tides and Currents Weather Stations Pressure Air Temp Water Temp Dewpoint Dewpoint Depression Visibility Wind Speed Wind Dir Waves Ship Positions

Seneimaru

Last reported at 2015-May-01 06:33 UTC. Time now 2015-May-03 14:53 UTC.
Position N 34°58' E 139°43'.

Length 72 m; draft 5.9 m.

Type: Cargo ship. MMSI: 431100477.

Date/timePositionNaut miles runAvg speedWind from/ knotsBaromVisibWave heightAir tempDewpointWater temp
2015-May-01 06:33N 34°58' E 139°43'1111.1
2015-May-01 05:34N 35°08' E 139°45'1110.7
2015-May-01 04:34N 35°19' E 139°43'1010.4
2015-May-01 03:34N 35°29' E 139°47'4 4.0
2015-May-01 02:33N 35°30' E 139°43'0 0.0
2015-May-01 01:34N 35°30' E 139°43'0 0.0
2015-May-01 00:34N 35°30' E 139°43'0 0.0
2015-Apr-30 23:34N 35°30' E 139°43'2 1.5
2015-Apr-30 22:33N 35°29' E 139°42'6 5.7
2015-Apr-30 21:34N 35°24' E 139°46'1010.0
2015-Apr-30 20:34N 35°14' E 139°47'1211.5
2015-Apr-30 19:34N 35°03' E 139°45'5 0.1
2015-Apr-29 08:33N 34°59' E 139°43'1111.0
2015-Apr-29 07:34N 35°09' E 139°45'1010.4
2015-Apr-29 06:34N 35°20' E 139°43'1110.5
2015-Apr-29 05:33N 35°29' E 139°48'4 3.9
2015-Apr-29 04:34N 35°30' E 139°43'0 0.0
2015-Apr-29 03:33N 35°30' E 139°43'0 0.0
2015-Apr-29 02:33N 35°30' E 139°43'0 0.0
2015-Apr-29 01:33N 35°30' E 139°43'0 0.0
2015-Apr-29 00:34N 35°30' E 139°43'0 0.0
2015-Apr-28 23:34N 35°30' E 139°43'0 0.0
2015-Apr-28 22:34N 35°30' E 139°43'0 0.0
2015-Apr-28 21:33N 35°30' E 139°43'1 1.3
2015-Apr-28 20:34N 35°29' E 139°42'6 6.3
2015-Apr-28 19:34N 35°23' E 139°44'0 0.3
2015-Apr-28 18:33N 35°23' E 139°44'1111.1
2015-Apr-28 17:33N 35°12' E 139°47'1312.4
2015-Apr-28 16:33N 34°59' E 139°44'4 0.1
2015-Apr-27 09:29N 34°56' E 139°44'9 9.8
2015-Apr-27 08:33N 35°05' E 139°44'1110.5
2015-Apr-27 07:33N 35°15' E 139°46'1010.1
2015-Apr-27 06:33N 35°25' E 139°44'5 4.7
2015-Apr-27 05:34N 35°30' E 139°43'1 0.7
2015-Apr-27 04:33N 35°30' E 139°43'0 0.0
2015-Apr-27 03:33N 35°30' E 139°43'0 0.0
2015-Apr-27 02:33N 35°30' E 139°43'0 0.0
2015-Apr-27 01:33N 35°30' E 139°43'0 0.0
2015-Apr-27 00:33N 35°30' E 139°43'0 0.0
2015-Apr-26 23:33N 35°30' E 139°43'0 0.2
2015-Apr-26 22:34N 35°30' E 139°43'6 5.5
2015-Apr-26 21:33N 35°25' E 139°44'1 0.9
2015-Apr-26 20:32N 35°24' E 139°44'0 0.0
2015-Apr-26 19:32N 35°24' E 139°44'0 0.0
2015-Apr-26 18:32N 35°24' E 139°44'0 0.0
2015-Apr-26 17:32N 35°24' E 139°44'0 0.0
2015-Apr-26 16:26N 35°24' E 139°44'0 0.0
2015-Apr-26 15:32N 35°24' E 139°44'4 4.3
2015-Apr-26 14:33N 35°19' E 139°43'1111.5
2015-Apr-26 13:33N 35°08' E 139°46'1312.3
2015-Apr-26 12:28N 34°55' E 139°45'2 0.1
2015-Apr-25 04:33N 34°57' E 139°44'1110.9
2015-Apr-25 03:33N 35°08' E 139°45'1111.3
2015-Apr-25 02:33N 35°19' E 139°43'1010.3
2015-Apr-25 01:33N 35°29' E 139°47'4 3.8
2015-Apr-25 00:33N 35°30' E 139°43'0 0.0
2015-Apr-24 23:33N 35°30' E 139°43'0 0.0
2015-Apr-24 22:33N 35°30' E 139°43'0 0.0
2015-Apr-24 21:33N 35°30' E 139°43'1 1.2
2015-Apr-24 20:33N 35°29' E 139°42'6 6.1
2015-Apr-24 19:33N 35°23' E 139°44'0 0.0
2015-Apr-24 18:33N 35°23' E 139°44'0 0.0
2015-Apr-24 17:33N 35°23' E 139°44'9 8.7
2015-Apr-24 16:33N 35°15' E 139°47'1212.2
2015-Apr-24 15:33N 35°03' E 139°45'9 0.3
2015-Apr-23 06:20N 34°54' E 139°45'810.3
2015-Apr-23 05:33N 35°02' E 139°44'1111.3
2015-Apr-23 04:33N 35°13' E 139°46'1010.5
2015-Apr-23 03:33N 35°23' E 139°44'1 0.9
2015-Apr-23 02:32N 35°24' E 139°44'4 4.0
2015-Apr-23 01:33N 35°27' E 139°47'4 4.2
2015-Apr-23 00:34N 35°30' E 139°43'0 0.0
2015-Apr-22 23:33N 35°30' E 139°43'0 0.0
2015-Apr-22 22:33N 35°30' E 139°43'0 0.0
2015-Apr-22 21:33N 35°30' E 139°43'0 0.0
2015-Apr-22 20:33N 35°30' E 139°43'0 0.0
2015-Apr-22 19:33N 35°30' E 139°43'0 0.0
2015-Apr-22 18:33N 35°30' E 139°43'0 0.0
2015-Apr-22 17:33N 35°30' E 139°43'0 0.0
2015-Apr-22 16:33N 35°30' E 139°43'0 0.0
2015-Apr-22 15:33N 35°30' E 139°43'0 0.0
2015-Apr-22 14:33N 35°30' E 139°43'0 0.0
2015-Apr-22 13:33N 35°30' E 139°43'0 0.0
2015-Apr-22 12:33N 35°30' E 139°43'0 0.0
2015-Apr-22 11:33N 35°30' E 139°43'0 0.0
2015-Apr-22 10:34N 35°30' E 139°43'0 0.0
2015-Apr-22 09:33N 35°30' E 139°43'0 0.0
2015-Apr-22 08:33N 35°30' E 139°43'0 0.0
2015-Apr-22 07:33N 35°30' E 139°43'0 0.0
2015-Apr-22 06:33N 35°30' E 139°43'0 0.0
2015-Apr-22 05:33N 35°30' E 139°43'0 0.0
2015-Apr-22 04:33N 35°30' E 139°43'0 0.0
2015-Apr-22 03:33N 35°30' E 139°43'0 0.0
2015-Apr-22 02:33N 35°30' E 139°43'0 0.0
2015-Apr-22 01:33N 35°30' E 139°43'0 0.0
2015-Apr-22 00:33N 35°30' E 139°43'0 0.0
2015-Apr-21 23:33N 35°30' E 139°43'0 0.0
2015-Apr-21 22:33N 35°30' E 139°43'0 0.0
2015-Apr-21 21:33N 35°30' E 139°43'0 0.0
2015-Apr-21 20:33N 35°30' E 139°43'0 0.0
2015-Apr-21 19:34N 35°30' E 139°43'0 0.0
2015-Apr-21 18:33N 35°30' E 139°43'0 0.0
2015-Apr-21 17:34N 35°30' E 139°43'0 0.0
2015-Apr-21 16:33N 35°30' E 139°43'0 0.0
2015-Apr-21 15:34N 35°30' E 139°43'0 0.0
2015-Apr-21 14:33N 35°30' E 139°43'0 0.0
2015-Apr-21 13:34N 35°30' E 139°43'0 0.0
2015-Apr-21 12:33N 35°30' E 139°43'0 0.0
2015-Apr-21 11:34N 35°30' E 139°43'0 0.0
2015-Apr-21 10:34N 35°30' E 139°43'0 0.0
2015-Apr-21 09:33N 35°30' E 139°43'0 0.0
2015-Apr-21 08:33N 35°30' E 139°43'0 0.0
2015-Apr-21 07:33N 35°30' E 139°43'1 1.2
2015-Apr-21 06:33N 35°29' E 139°42'  

Dump ship's entire track history